Time;durP1;ratioP1;P1;durP2;ratioP2;P2;SDS_P1;SDS_P2;PMS_P1;PMS_P2;Temp;Humidity;BMP_temperature;BMP_pressure;BME280_temperature;BME280_humidity;BME280_pressure;Samples;Min_cycle;Max_cycle;Signal;HPM_P1;HPM_P2
2020/12/22 00:00:47;;;;;;;19.98;13.93;;;5.40;99.90;;;;;;4978958;28;20237;-79
2020/12/22 00:03:13;;;;;;;20.02;13.68;;;5.40;99.90;;;;;;4982707;28;20674;-79
2020/12/22 00:05:40;;;;;;;21.88;14.25;;;5.40;99.90;;;;;;4985051;28;20240;-81
2020/12/22 00:08:11;;;;;;;21.30;14.55;;;5.50;99.90;;;;;;4984190;28;20791;-78
2020/12/22 00:10:37;;;;;;;18.60;13.32;;;5.60;99.90;;;;;;4985806;28;20637;-79
2020/12/22 00:13:04;;;;;;;18.13;13.20;;;5.50;99.90;;;;;;4996012;28;20292;-81
2020/12/22 00:16:23;;;;;;;23.70;15.65;;;5.60;99.90;;;;;;5119802;27;20630;-85
2020/12/22 00:18:49;;;;;;;22.48;14.50;;;5.60;99.90;;;;;;5129517;28;20213;-78
2020/12/22 00:21:19;;;;;;;18.65;14.30;;;5.50;99.90;;;;;;5129326;28;20264;-77
2020/12/22 00:23:46;;;;;;;20.00;13.70;;;5.50;99.90;;;;;;5118807;28;20660;-77
2020/12/22 00:26:15;;;;;;;22.02;13.82;;;5.60;99.90;;;;;;5113803;28;20693;-77
2020/12/22 00:28:41;;;;;;;23.30;15.60;;;5.70;99.90;;;;;;5111535;28;20205;-78
2020/12/22 00:31:08;;;;;;;19.98;14.25;;;5.60;99.90;;;;;;5111265;28;20203;-78
2020/12/22 00:33:35;;;;;;;19.75;15.13;;;5.70;99.90;;;;;;5111376;28;20744;-78
2020/12/22 00:36:01;;;;;;;23.85;16.05;;;5.70;99.90;;;;;;5110988;28;20228;-78
2020/12/22 00:38:28;;;;;;;18.85;15.25;;;5.70;99.90;;;;;;5110481;28;20237;-78
2020/12/22 00:40:54;;;;;;;22.65;14.80;;;5.70;99.90;;;;;;5112008;28;20283;-78
2020/12/22 00:43:20;;;;;;;21.02;15.38;;;5.70;99.90;;;;;;5111988;28;20201;-78
2020/12/22 00:45:47;;;;;;;25.33;16.02;;;5.70;99.90;;;;;;5111582;28;20221;-77
2020/12/22 00:48:13;;;;;;;17.67;14.13;;;5.80;99.90;;;;;;5111220;28;20296;-77
2020/12/22 00:50:40;;;;;;;20.40;16.00;;;5.80;99.90;;;;;;5111418;28;20303;-78
2020/12/22 00:53:06;;;;;;;24.33;16.92;;;5.80;99.90;;;;;;5111628;28;20197;-78
2020/12/22 00:55:33;;;;;;;22.17;14.90;;;5.80;99.90;;;;;;5110867;28;20229;-77
2020/12/22 00:57:59;;;;;;;20.70;14.63;;;5.80;99.90;;;;;;5111354;28;20288;-77
2020/12/22 01:00:25;;;;;;;23.00;14.70;;;5.80;99.90;;;;;;5116185;28;20211;-78
2020/12/22 01:02:51;;;;;;;25.67;14.77;;;5.80;99.90;;;;;;5124953;28;20215;-77
2020/12/22 01:05:18;;;;;;;20.77;15.95;;;5.80;99.90;;;;;;5124575;28;20280;-78
2020/12/22 01:07:45;;;;;;;21.70;15.15;;;5.80;99.90;;;;;;5117990;28;20232;-78
2020/12/22 01:10:11;;;;;;;20.30;15.38;;;5.90;99.90;;;;;;5112716;28;20288;-78
2020/12/22 01:12:38;;;;;;;19.05;13.73;;;5.90;99.90;;;;;;5113812;28;20558;-78
2020/12/22 01:15:04;;;;;;;22.50;14.38;;;6.00;99.90;;;;;;5113330;28;20672;-77
2020/12/22 01:17:30;;;;;;;22.88;14.77;;;6.00;99.90;;;;;;5111238;28;20224;-77
2020/12/22 01:19:57;;;;;;;23.35;16.40;;;6.00;99.90;;;;;;5111533;28;20197;-78
2020/12/22 01:22:23;;;;;;;22.13;14.70;;;6.00;99.90;;;;;;5110635;28;20697;-78
2020/12/22 01:24:50;;;;;;;21.13;14.75;;;6.00;99.90;;;;;;5110796;28;20197;-77
2020/12/22 01:27:16;;;;;;;19.33;14.35;;;6.00;99.90;;;;;;5100095;28;20290;-78
2020/12/22 01:29:43;;;;;;;19.33;14.82;;;6.00;99.90;;;;;;5096805;28;20746;-78
2020/12/22 01:32:09;;;;;;;22.25;14.90;;;6.00;99.90;;;;;;5096907;28;20226;-78
2020/12/22 01:34:35;;;;;;;22.63;14.93;;;5.90;99.90;;;;;;5096909;28;20310;-79
2020/12/22 01:37:02;;;;;;;20.67;14.23;;;5.90;99.90;;;;;;5096652;28;20221;-79
2020/12/22 01:39:28;;;;;;;20.83;14.93;;;6.00;99.90;;;;;;5096861;28;20206;-78
2020/12/22 01:41:55;;;;;;;25.02;15.35;;;6.00;99.90;;;;;;5095919;28;20255;-78
2020/12/22 01:44:21;;;;;;;24.45;15.38;;;5.90;99.90;;;;;;5098223;28;20249;-78
2020/12/22 01:46:55;;;;;;;23.48;15.35;;;6.00;99.90;;;;;;5097720;28;20655;-80
2020/12/22 01:49:23;;;;;;;24.45;16.05;;;6.00;99.90;;;;;;5098386;28;20225;-80
2020/12/22 01:51:52;;;;;;;24.25;14.60;;;6.20;99.90;;;;;;5097806;28;20229;-80
2020/12/22 01:54:18;;;;;;;21.05;14.20;;;6.00;99.90;;;;;;5096990;28;20206;-79
2020/12/22 01:56:45;;;;;;;20.73;14.95;;;6.00;99.90;;;;;;5098040;28;20225;-79
2020/12/22 01:59:13;;;;;;;21.42;15.10;;;6.10;99.90;;;;;;5097799;28;20185;-79
2020/12/22 02:01:40;;;;;;;22.58;15.75;;;6.10;99.90;;;;;;5097647;28;20208;-79
2020/12/22 02:04:08;;;;;;;25.60;16.52;;;6.20;99.90;;;;;;5097529;28;20202;-81
2020/12/22 02:06:35;;;;;;;24.00;15.88;;;6.20;99.90;;;;;;5099495;28;20232;-80
2020/12/22 02:09:07;;;;;;;21.20;14.88;;;6.20;99.90;;;;;;5097110;28;20209;-88
2020/12/22 02:11:35;;;;;;;20.00;13.57;;;6.20;99.90;;;;;;5097599;28;20185;-80
2020/12/22 02:14:04;;;;;;;22.45;15.90;;;6.20;99.90;;;;;;5098475;28;20202;-80
2020/12/22 02:16:31;;;;;;;22.67;16.40;;;6.20;99.90;;;;;;5097408;28;20229;-80
2020/12/22 02:18:58;;;;;;;21.55;14.60;;;6.10;99.90;;;;;;5097572;28;20205;-80
2020/12/22 02:21:26;;;;;;;21.02;14.40;;;6.10;99.90;;;;;;5097532;28;20552;-80
2020/12/22 02:23:52;;;;;;;20.67;15.02;;;6.10;99.90;;;;;;5099736;28;20201;-79
2020/12/22 02:26:19;;;;;;;21.17;15.98;;;6.00;99.90;;;;;;5100097;28;20214;-79
2020/12/22 02:28:46;;;;;;;20.63;14.70;;;6.10;99.90;;;;;;5098634;28;20201;-79
2020/12/22 02:31:12;;;;;;;21.85;15.25;;;6.00;99.90;;;;;;5097445;28;20201;-79
2020/12/22 02:33:39;;;;;;;24.50;16.05;;;6.00;99.90;;;;;;5098286;28;20201;-79
2020/12/22 02:36:08;;;;;;;28.60;15.38;;;6.00;99.90;;;;;;5097456;28;20228;-79
2020/12/22 02:38:36;;;;;;;22.98;15.23;;;6.00;99.90;;;;;;5096506;28;20210;-79
2020/12/22 02:41:03;;;;;;;20.15;15.65;;;6.00;99.90;;;;;;5097960;28;20696;-80
2020/12/22 02:43:29;;;;;;;22.88;16.60;;;6.00;99.90;;;;;;5098576;28;20637;-79
2020/12/22 02:45:56;;;;;;;23.05;15.73;;;6.10;99.90;;;;;;5099051;28;20297;-79
2020/12/22 02:48:22;;;;;;;25.40;17.45;;;6.00;99.90;;;;;;5098071;28;20227;-79
2020/12/22 02:50:48;;;;;;;23.77;16.80;;;6.10;99.90;;;;;;5098899;28;20688;-79
2020/12/22 02:53:15;;;;;;;25.73;17.52;;;6.10;99.90;;;;;;5097865;28;20205;-79
2020/12/22 02:55:42;;;;;;;22.73;16.15;;;6.10;99.90;;;;;;5098126;28;20232;-79
2020/12/22 02:58:08;;;;;;;24.25;16.65;;;6.10;99.90;;;;;;5097856;28;20197;-80
2020/12/22 03:00:35;;;;;;;25.90;18.60;;;6.10;99.90;;;;;;5097915;28;20209;-79
2020/12/22 03:03:01;;;;;;;24.38;18.95;;;6.10;99.90;;;;;;5097858;28;20198;-79
2020/12/22 03:05:27;;;;;;;26.55;17.50;;;6.00;99.90;;;;;;5097739;28;20217;-79
2020/12/22 03:07:54;;;;;;;25.00;18.55;;;6.00;99.90;;;;;;5097366;28;20201;-79
2020/12/22 03:10:20;;;;;;;24.83;16.65;;;6.00;99.90;;;;;;5097724;28;20248;-79
2020/12/22 03:12:48;;;;;;;24.58;17.17;;;6.00;99.90;;;;;;5100069;28;20250;-79
2020/12/22 03:15:14;;;;;;;24.98;17.05;;;6.00;99.90;;;;;;5107492;28;20232;-80
2020/12/22 03:17:41;;;;;;;30.48;19.42;;;5.90;99.90;;;;;;5107882;28;20204;-79
2020/12/22 03:20:09;;;;;;;27.02;18.55;;;6.00;99.90;;;;;;5098575;28;20204;-79
2020/12/22 03:22:36;;;;;;;25.20;17.17;;;6.00;99.90;;;;;;5098402;28;20580;-79
2020/12/22 03:25:03;;;;;;;25.98;17.88;;;6.10;99.90;;;;;;5097398;28;20289;-79
2020/12/22 03:27:29;;;;;;;23.52;17.88;;;6.10;99.90;;;;;;5096358;28;20236;-79
2020/12/22 03:29:57;;;;;;;24.10;18.02;;;6.10;99.90;;;;;;5095595;28;20202;-79
2020/12/22 03:32:23;;;;;;;27.38;17.60;;;6.00;99.90;;;;;;5095242;28;20674;-80
2020/12/22 03:34:49;;;;;;;24.73;18.10;;;6.10;99.90;;;;;;5095088;28;20225;-79
2020/12/22 03:37:20;;;;;;;25.98;18.73;;;6.10;99.90;;;;;;5095344;28;20262;-80
2020/12/22 03:39:50;;;;;;;27.02;17.15;;;6.10;99.90;;;;;;5095583;28;20566;-79
2020/12/22 03:42:16;;;;;;;26.17;18.45;;;6.10;99.90;;;;;;5098072;28;20186;-79
2020/12/22 03:44:43;;;;;;;25.58;18.48;;;6.20;99.90;;;;;;5102880;28;20204;-79
2020/12/22 03:47:11;;;;;;;27.48;17.02;;;6.20;99.90;;;;;;5102428;28;20227;-80
2020/12/22 03:49:37;;;;;;;27.25;18.48;;;6.20;99.90;;;;;;5104228;28;20206;-79
2020/12/22 03:52:04;;;;;;;29.10;17.30;;;6.20;99.90;;;;;;5103123;28;20197;-79
2020/12/22 03:54:30;;;;;;;27.77;19.42;;;6.20;99.90;;;;;;5104294;28;20206;-79
2020/12/22 03:56:57;;;;;;;29.67;19.38;;;6.20;99.90;;;;;;5102206;28;20225;-79
2020/12/22 03:59:23;;;;;;;28.10;17.50;;;6.30;99.90;;;;;;5098506;28;20615;-79
2020/12/22 04:01:50;;;;;;;27.38;18.10;;;6.30;99.90;;;;;;5097303;28;20224;-79
2020/12/22 04:04:19;;;;;;;25.13;17.52;;;6.20;99.90;;;;;;5097192;28;20206;-79
2020/12/22 04:06:46;;;;;;;25.08;16.90;;;6.30;99.90;;;;;;5097297;28;20233;-79
2020/12/22 04:09:12;;;;;;;26.77;17.67;;;6.30;99.90;;;;;;5097665;28;20202;-80
2020/12/22 04:11:40;;;;;;;26.27;16.70;;;6.40;99.90;;;;;;5106526;28;20205;-79
2020/12/22 04:14:07;;;;;;;29.15;18.75;;;6.40;99.90;;;;;;5105854;28;20197;-79
2020/12/22 04:16:33;;;;;;;26.70;19.55;;;6.40;99.90;;;;;;5102186;28;20289;-80
2020/12/22 04:18:59;;;;;;;28.85;19.38;;;6.40;99.90;;;;;;5096782;28;20673;-79
2020/12/22 04:21:27;;;;;;;27.50;18.48;;;6.40;99.90;;;;;;5097520;28;20202;-79
2020/12/22 04:23:54;;;;;;;29.63;19.27;;;6.40;99.90;;;;;;5097374;28;20252;-79
2020/12/22 04:26:21;;;;;;;28.65;19.35;;;6.50;99.90;;;;;;5097048;28;20309;-79
2020/12/22 04:28:47;;;;;;;27.10;17.65;;;6.50;99.90;;;;;;5097590;28;20205;-79
2020/12/22 04:31:14;;;;;;;27.85;17.30;;;6.50;99.90;;;;;;5098378;28;20202;-79
2020/12/22 04:33:40;;;;;;;31.55;19.40;;;6.50;99.90;;;;;;5097432;28;20244;-79
2020/12/22 04:36:07;;;;;;;30.42;17.45;;;6.60;99.90;;;;;;5096339;28;20236;-81
2020/12/22 04:38:34;;;;;;;24.15;16.08;;;6.50;99.90;;;;;;5097350;28;20282;-80
2020/12/22 04:41:01;;;;;;;26.27;18.23;;;6.50;99.90;;;;;;5097951;28;20289;-79
2020/12/22 04:43:28;;;;;;;25.80;18.02;;;6.50;99.90;;;;;;5096930;28;20211;-79
2020/12/22 04:46:00;;;;;;;25.77;16.75;;;6.50;99.90;;;;;;5096852;28;20221;-79
2020/12/22 04:48:29;;;;;;;23.23;16.90;;;6.50;99.90;;;;;;5098114;28;20185;-79
2020/12/22 04:50:56;;;;;;;25.58;17.13;;;6.50;99.90;;;;;;5097504;28;20205;-80
2020/12/22 04:53:23;;;;;;;25.38;16.95;;;6.60;99.90;;;;;;5096897;28;20577;-80
2020/12/22 04:55:50;;;;;;;23.63;17.45;;;6.60;99.90;;;;;;5096443;28;20221;-80
2020/12/22 04:58:16;;;;;;;24.85;17.45;;;6.60;99.90;;;;;;5096859;28;20205;-80
2020/12/22 05:00:43;;;;;;;26.40;18.15;;;6.70;99.90;;;;;;5096631;28;20666;-80
2020/12/22 05:03:12;;;;;;;24.75;16.55;;;6.70;99.90;;;;;;5100606;28;20209;-80
2020/12/22 05:05:38;;;;;;;23.20;16.52;;;6.70;99.90;;;;;;5100275;28;20218;-80
2020/12/22 05:08:04;;;;;;;22.88;16.10;;;6.70;99.90;;;;;;5100115;28;20288;-80
2020/12/22 05:10:30;;;;;;;26.02;16.30;;;6.80;99.90;;;;;;5100008;28;20259;-80
2020/12/22 05:12:58;;;;;;;25.13;16.80;;;6.80;99.90;;;;;;5100575;28;20208;-79
2020/12/22 05:15:27;;;;;;;23.10;14.50;;;6.90;99.90;;;;;;5100688;28;20227;-80
2020/12/22 05:17:53;;;;;;;23.23;16.50;;;7.00;99.90;;;;;;5098293;28;20436;-79
2020/12/22 05:20:21;;;;;;;19.35;14.88;;;7.00;99.90;;;;;;5099367;28;20310;-80
2020/12/22 05:22:47;;;;;;;19.80;14.98;;;7.00;99.90;;;;;;5099276;28;20240;-80
2020/12/22 05:25:16;;;;;;;25.55;15.18;;;7.00;99.90;;;;;;5098677;28;20202;-79
2020/12/22 05:27:44;;;;;;;22.15;15.38;;;7.00;99.90;;;;;;5099631;28;20202;-80
2020/12/22 05:30:13;;;;;;;16.70;13.85;;;7.10;99.90;;;;;;5098741;28;20217;-80
2020/12/22 05:32:42;;;;;;;21.05;15.70;;;7.10;99.90;;;;;;5098269;28;20843;-78
2020/12/22 05:35:11;;;;;;;22.88;15.98;;;7.00;99.90;;;;;;5097507;28;20331;-79
2020/12/22 05:37:40;;;;;;;20.13;15.13;;;7.10;99.90;;;;;;5098494;28;20205;-80
2020/12/22 05:40:09;;;;;;;30.45;16.42;;;7.10;99.90;;;;;;5098180;28;20198;-80
2020/12/22 05:42:36;;;;;;;20.33;14.05;;;7.10;99.90;;;;;;5099543;28;20210;-79
2020/12/22 05:45:06;;;;;;;22.02;15.65;;;7.10;99.90;;;;;;5098691;28;20208;-80
2020/12/22 05:47:33;;;;;;;21.75;13.98;;;7.10;99.90;;;;;;5098469;28;20208;-79
2020/12/22 05:50:00;;;;;;;20.05;14.07;;;7.20;99.90;;;;;;5098346;28;20205;-80
2020/12/22 05:52:29;;;;;;;23.27;14.20;;;7.30;99.90;;;;;;5098028;28;20232;-79
2020/12/22 05:54:57;;;;;;;18.40;13.23;;;7.30;99.90;;;;;;5098589;28;20225;-80
2020/12/22 05:57:25;;;;;;;19.17;13.50;;;7.30;99.90;;;;;;5099319;28;20225;-79
2020/12/22 05:59:52;;;;;;;20.10;13.50;;;7.30;99.90;;;;;;5099517;28;20202;-79
2020/12/22 06:02:29;;;;;;;21.75;13.82;;;7.30;99.90;;;;;;5100066;28;20437;-79
2020/12/22 06:04:57;;;;;;;21.80;14.90;;;7.40;99.90;;;;;;5099401;28;20872;-80
2020/12/22 06:07:24;;;;;;;20.63;14.07;;;7.40;99.90;;;;;;5101194;28;20558;-79
2020/12/22 06:09:51;;;;;;;18.77;14.40;;;7.40;99.90;;;;;;5101150;28;20206;-80
2020/12/22 06:12:18;;;;;;;16.30;12.88;;;7.50;99.90;;;;;;5101581;28;20285;-79
2020/12/22 06:14:46;;;;;;;16.63;11.80;;;7.50;99.90;;;;;;5100471;28;20213;-81
2020/12/22 06:17:13;;;;;;;16.77;14.13;;;7.60;99.90;;;;;;5100768;28;20256;-79
2020/12/22 06:19:41;;;;;;;14.73;12.27;;;7.60;99.90;;;;;;5100281;28;20535;-79
2020/12/22 06:22:11;;;;;;;20.42;13.77;;;7.50;99.90;;;;;;5099772;28;20447;-79
2020/12/22 06:24:37;;;;;;;18.55;13.23;;;7.60;99.90;;;;;;5106179;28;20206;-79
2020/12/22 06:27:05;;;;;;;15.45;12.57;;;7.60;99.90;;;;;;5105624;28;20312;-79
2020/12/22 06:29:32;;;;;;;20.98;14.85;;;7.60;99.90;;;;;;5103377;28;20441;-80
2020/12/22 06:32:25;;;;;;;20.10;15.13;;;7.60;99.90;;;;;;5101368;28;20788;-80
2020/12/22 06:34:53;;;;;;;16.75;12.80;;;7.70;99.90;;;;;;5102753;28;20567;-80
2020/12/22 06:37:39;;;;;;;20.55;12.02;;;7.70;99.90;;;;;;5101717;28;20316;-81
2020/12/22 06:40:07;;;;;;;14.40;10.50;;;7.70;99.90;;;;;;5101172;28;20273;-79
2020/12/22 06:42:44;;;;;;;14.88;11.15;;;7.80;99.90;;;;;;5102471;28;20658;-79
2020/12/22 06:45:28;;;;;;;19.58;13.00;;;7.80;99.90;;;;;;5104167;28;20201;-79
2020/12/22 06:47:56;;;;;;;17.98;13.05;;;7.80;99.90;;;;;;5102296;28;20543;-80
2020/12/22 06:50:43;;;;;;;14.98;11.98;;;7.90;99.90;;;;;;5103338;28;20198;-79
2020/12/22 06:53:34;;;;;;;16.83;11.80;;;7.90;99.90;;;;;;5105309;28;20193;-79
2020/12/22 06:56:01;;;;;;;15.63;11.82;;;7.90;99.90;;;;;;5114307;28;20251;-79
2020/12/22 06:58:38;;;;;;;16.55;11.38;;;8.00;99.90;;;;;;5113196;28;20690;-80
2020/12/22 07:01:33;;;;;;;15.50;11.55;;;8.00;99.90;;;;;;5101871;28;20741;-80
2020/12/22 07:04:23;;;;;;;15.95;12.45;;;8.10;99.90;;;;;;5097010;28;20663;-80
2020/12/22 07:06:58;;;;;;;15.10;12.73;;;8.10;99.90;;;;;;5097903;28;20309;-80
2020/12/22 07:09:27;;;;;;;13.00;11.60;;;8.20;99.90;;;;;;5097690;28;20650;-80
2020/12/22 07:11:57;;;;;;;16.17;11.70;;;8.20;99.90;;;;;;5100598;28;20207;-80
2020/12/22 07:14:24;;;;;;;16.20;13.25;;;8.20;99.90;;;;;;5098906;28;20242;-80
2020/12/22 07:16:54;;;;;;;14.57;12.00;;;8.20;99.90;;;;;;5099535;28;20236;-80
2020/12/22 07:19:28;;;;;;;14.63;11.80;;;8.40;99.90;;;;;;5103721;28;20208;-80
2020/12/22 07:21:55;;;;;;;13.20;11.68;;;8.30;99.90;;;;;;5104923;28;20204;-80
2020/12/22 07:24:22;;;;;;;12.50;10.48;;;8.40;99.90;;;;;;5102042;28;20289;-80
2020/12/22 07:26:49;;;;;;;14.35;10.88;;;8.40;99.90;;;;;;5103908;28;20238;-80
2020/12/22 07:29:15;;;;;;;11.50;10.30;;;8.40;99.90;;;;;;5105036;28;20229;-80
2020/12/22 07:31:43;;;;;;;13.00;10.82;;;8.50;99.90;;;;;;5105982;28;20206;-80
2020/12/22 07:34:10;;;;;;;11.07;9.95;;;8.40;99.90;;;;;;5103325;28;20206;-80
2020/12/22 07:36:37;;;;;;;14.70;11.02;;;8.50;99.90;;;;;;5103390;28;20229;-80
2020/12/22 07:39:14;;;;;;;12.60;9.75;;;8.50;99.90;;;;;;5101559;28;20236;-79
2020/12/22 07:41:40;;;;;;;10.60;9.50;;;8.60;99.90;;;;;;5101716;28;20264;-80
2020/12/22 07:44:12;;;;;;;10.10;8.88;;;8.60;99.90;;;;;;5106348;28;20202;-79
2020/12/22 07:46:40;;;;;;;9.90;8.90;;;8.60;99.90;;;;;;5109971;28;20281;-79
2020/12/22 07:49:08;;;;;;;10.07;8.98;;;8.70;99.90;;;;;;5110562;28;20205;-79
2020/12/22 07:51:35;;;;;;;11.13;8.30;;;8.70;99.90;;;;;;5110578;28;20268;-80
2020/12/22 07:54:03;;;;;;;8.13;7.33;;;8.80;99.90;;;;;;5110745;28;20201;-79
2020/12/22 07:56:31;;;;;;;9.55;7.93;;;8.80;99.90;;;;;;5110497;28;20494;-79
2020/12/22 07:58:59;;;;;;;9.07;7.90;;;8.90;99.90;;;;;;5112475;28;20201;-80
2020/12/22 08:01:30;;;;;;;8.20;7.40;;;8.90;99.90;;;;;;5113362;28;20186;-80
2020/12/22 08:03:56;;;;;;;9.10;8.20;;;8.90;99.90;;;;;;5116181;28;20193;-80
2020/12/22 08:06:23;;;;;;;7.50;6.90;;;9.00;99.90;;;;;;5116191;28;20235;-79
2020/12/22 08:08:59;;;;;;;6.13;5.63;;;9.00;99.90;;;;;;5116893;28;20292;-79
2020/12/22 08:11:26;;;;;;;7.23;5.80;;;9.10;99.90;;;;;;5103624;28;20295;-81
2020/12/22 08:13:54;;;;;;;6.00;5.45;;;9.10;99.90;;;;;;5100335;28;20475;-80
2020/12/22 08:16:20;;;;;;;6.45;5.85;;;9.10;99.90;;;;;;5101579;28;20630;-80
2020/12/22 08:18:49;;;;;;;6.40;5.53;;;9.20;99.90;;;;;;5100321;28;20288;-80
2020/12/22 08:21:18;;;;;;;5.13;4.73;;;9.20;99.90;;;;;;5100398;28;20201;-80
2020/12/22 08:23:45;;;;;;;7.50;5.07;;;9.30;99.90;;;;;;5099696;28;20452;-80
2020/12/22 08:26:12;;;;;;;5.60;5.10;;;9.30;99.90;;;;;;5100632;28;20217;-80
2020/12/22 08:28:39;;;;;;;4.63;4.30;;;9.40;99.90;;;;;;5104799;28;20446;-80
2020/12/22 08:31:11;;;;;;;6.97;4.97;;;9.40;99.90;;;;;;5113400;28;20470;-80
2020/12/22 08:33:40;;;;;;;4.70;4.30;;;9.40;99.90;;;;;;5109623;28;20467;-80
2020/12/22 08:36:11;;;;;;;4.18;3.85;;;9.50;99.90;;;;;;5109417;28;20255;-80
2020/12/22 08:38:38;;;;;;;5.67;5.17;;;9.40;99.90;;;;;;5113850;28;20190;-80
2020/12/22 08:41:15;;;;;;;4.20;3.80;;;9.40;99.90;;;;;;5112058;28;20549;-80
2020/12/22 08:43:50;;;;;;;5.30;4.80;;;9.50;99.90;;;;;;5111935;28;20431;-80
2020/12/22 08:46:18;;;;;;;4.57;4.10;;;9.60;99.90;;;;;;5112855;28;20455;-80
2020/12/22 08:48:44;;;;;;;4.28;3.90;;;9.60;99.90;;;;;;5108434;28;20486;-80
2020/12/22 08:51:12;;;;;;;4.27;3.53;;;9.60;99.90;;;;;;5104144;28;20211;-80
2020/12/22 08:53:49;;;;;;;4.80;3.90;;;9.70;99.90;;;;;;5103964;28;20538;-81
2020/12/22 08:56:15;;;;;;;3.70;3.40;;;9.70;99.90;;;;;;5103216;28;20552;-81
2020/12/22 08:59:00;;;;;;;8.10;3.60;;;9.80;99.90;;;;;;5102050;28;20450;-81
2020/12/22 09:01:28;;;;;;;5.70;5.20;;;9.80;99.90;;;;;;5102639;28;20432;-81
2020/12/22 09:03:58;;;;;;;6.33;4.50;;;9.90;99.90;;;;;;5103528;28;20451;-81
2020/12/22 09:06:45;;;;;;;9.10;3.87;;;9.90;99.90;;;;;;5102343;28;20463;-82
2020/12/22 09:09:16;;;;;;;7.90;5.50;;;10.00;99.90;;;;;;5103496;28;20428;-81
2020/12/22 09:11:44;;;;;;;4.40;4.00;;;10.00;99.90;;;;;;5101741;28;20405;-80
2020/12/22 09:14:12;;;;;;;5.23;3.20;;;10.10;99.90;;;;;;5102303;28;20472;-81
2020/12/22 09:16:49;;;;;;;3.33;2.80;;;10.10;99.90;;;;;;5103566;28;20562;-81
2020/12/22 09:19:16;;;;;;;2.90;2.70;;;10.10;99.90;;;;;;5102861;28;20477;-81
2020/12/22 09:21:43;;;;;;;2.90;2.63;;;10.20;99.90;;;;;;5101586;28;20477;-81
2020/12/22 09:24:16;;;;;;;3.57;2.97;;;10.20;99.90;;;;;;5101343;28;20853;-80
2020/12/22 09:27:00;;;;;;;2.73;2.53;;;10.20;99.90;;;;;;5101310;28;20471;-80
2020/12/22 09:29:27;;;;;;;2.60;2.40;;;10.30;99.90;;;;;;5102981;28;20447;-80
2020/12/22 09:31:55;;;;;;;2.43;2.33;;;10.40;99.90;;;;;;5106324;28;20793;-80
2020/12/22 09:34:21;;;;;;;2.47;2.20;;;10.40;99.90;;;;;;5106461;28;20810;-81
2020/12/22 09:36:53;;;;;;;2.70;2.60;;;10.40;99.90;;;;;;5102044;28;21071;-80
2020/12/22 09:39:19;;;;;;;3.43;2.90;;;10.40;99.90;;;;;;5103444;28;20450;-80
2020/12/22 09:41:46;;;;;;;3.90;2.50;;;10.40;99.90;;;;;;5103101;28;20476;-80
2020/12/22 09:44:13;;;;;;;4.20;2.50;;;10.40;99.90;;;;;;5101861;28;20543;-81
2020/12/22 09:46:39;;;;;;;2.53;2.33;;;10.50;99.90;;;;;;5100632;28;20462;-81
2020/12/22 09:49:06;;;;;;;3.50;2.30;;;10.50;99.90;;;;;;5102122;28;20552;-81
2020/12/22 09:51:32;;;;;;;2.70;2.50;;;10.50;99.90;;;;;;5101307;28;20538;-81
2020/12/22 09:54:00;;;;;;;2.73;1.77;;;10.50;99.90;;;;;;5102569;28;20443;-80
2020/12/22 09:56:26;;;;;;;2.40;2.10;;;10.60;99.90;;;;;;5101077;28;20483;-82
2020/12/22 09:58:52;;;;;;;2.10;1.67;;;10.70;99.90;;;;;;5101946;28;20530;-81
2020/12/22 10:01:23;;;;;;;2.80;2.60;;;10.70;99.90;;;;;;5101217;28;20538;-80
2020/12/22 10:03:49;;;;;;;2.60;2.40;;;10.80;99.90;;;;;;5099651;28;20483;-81
2020/12/22 10:06:17;;;;;;;2.13;2.00;;;10.80;99.90;;;;;;5099868;28;20546;-81
2020/12/22 10:08:43;;;;;;;2.60;2.40;;;10.80;99.90;;;;;;5100215;28;20512;-81
2020/12/22 10:11:11;;;;;;;4.40;1.93;;;10.90;99.90;;;;;;5100554;28;20448;-82
2020/12/22 10:13:37;;;;;;;2.67;2.47;;;11.00;99.90;;;;;;5100202;28;20440;-80
2020/12/22 10:16:11;;;;;;;2.67;1.80;;;11.00;99.90;;;;;;5099374;28;20869;-81
2020/12/22 10:18:38;;;;;;;1.40;1.30;;;11.00;99.90;;;;;;5101302;28;20939;-81
2020/12/22 10:21:06;;;;;;;2.10;1.90;;;11.00;99.90;;;;;;5099525;28;20856;-82
2020/12/22 10:23:33;;;;;;;2.07;1.97;;;11.00;99.90;;;;;;5101018;28;20520;-82
2020/12/22 10:26:01;;;;;;;2.40;1.80;;;11.10;99.90;;;;;;5101395;28;20553;-81
2020/12/22 10:28:29;;;;;;;1.53;1.43;;;11.10;99.90;;;;;;5099676;28;20452;-80
2020/12/22 10:30:56;;;;;;;2.10;2.00;;;11.10;99.90;;;;;;5101561;28;20440;-82
2020/12/22 10:33:22;;;;;;;2.27;2.07;;;11.10;99.90;;;;;;5099452;28;20455;-81
2020/12/22 10:35:48;;;;;;;2.30;2.10;;;11.10;99.90;;;;;;5102857;28;20484;-81
2020/12/22 10:38:15;;;;;;;2.87;2.27;;;11.10;99.90;;;;;;5101912;28;20528;-83
2020/12/22 10:40:41;;;;;;;2.10;1.97;;;11.00;99.90;;;;;;5101877;28;20650;-82
2020/12/22 10:43:08;;;;;;;3.10;2.27;;;11.10;99.90;;;;;;5100176;28;20444;-88
2020/12/22 10:45:35;;;;;;;2.20;1.97;;;11.10;99.90;;;;;;5098097;28;20494;-87
2020/12/22 10:48:06;;;;;;;2.20;2.00;;;11.10;99.90;;;;;;5120569;22;20452;-83
2020/12/22 10:50:32;;;;;;;2.70;2.33;;;11.10;99.90;;;;;;5030473;28;20458;-86
2020/12/22 10:52:59;;;;;;;2.70;2.50;;;11.10;99.90;;;;;;5030165;28;20467;-85
2020/12/22 12:33:27;;;;;;;2.50;2.30;;;12.60;99.90;;;;;;5138193;22;20492;-81
2020/12/22 12:35:53;;;;;;;2.60;2.17;;;12.60;99.90;;;;;;5021954;28;20447;-81
2020/12/22 12:38:20;;;;;;;1.87;1.77;;;12.60;99.90;;;;;;5027943;28;20439;-81
2020/12/22 12:40:46;;;;;;;2.53;2.20;;;12.60;99.90;;;;;;5031066;28;20952;-80
2020/12/22 12:43:12;;;;;;;3.03;2.30;;;12.60;99.90;;;;;;5021616;28;20470;-81
2020/12/22 12:45:39;;;;;;;3.60;2.10;;;12.60;99.90;;;;;;5018924;28;20479;-81
2020/12/22 12:55:59;;;;;;;1.77;1.63;;;12.50;99.90;;;;;;5945634;22;20741;-81
2020/12/22 12:58:31;;;;;;;5.60;2.07;;;12.40;99.90;;;;;;5023550;28;20427;-83
2020/12/22 13:01:06;;;;;;;6.93;2.60;;;12.50;99.90;;;;;;5022530;28;20449;-83
2020/12/22 13:10:11;;;;;;;2.27;1.70;;;12.50;99.90;;;;;;4917228;28;20947;-84
2020/12/22 13:40:07;;;;;;;8.30;6.90;;;12.80;99.90;;;;;;5026640;28;20892;-82
2020/12/22 14:05:46;;;;;;;4.30;2.93;;;12.80;99.90;;;;;;5018745;28;20487;-87
2020/12/22 14:08:14;;;;;;;2.00;1.80;;;12.80;99.90;;;;;;5016887;28;20496;-89
2020/12/22 14:10:40;;;;;;;2.17;2.07;;;12.80;99.90;;;;;;5019170;28;20471;-88
2020/12/22 14:13:06;;;;;;;3.20;2.13;;;12.80;99.90;;;;;;5019604;28;20428;-89
2020/12/22 14:15:33;;;;;;;5.47;2.73;;;12.70;99.90;;;;;;5016728;28;20451;-88
2020/12/22 14:17:59;;;;;;;2.57;2.37;;;12.80;99.90;;;;;;5017378;28;20455;-88
2020/12/22 14:34:46;;;;;;;8.00;3.90;;;12.90;99.90;;;;;;5375226;22;20552;-83
2020/12/22 14:37:12;;;;;;;101.00;48.67;;;13.00;99.90;;;;;;5020382;28;21019;-84
2020/12/22 14:39:39;;;;;;;2.20;2.10;;;13.00;99.90;;;;;;5022228;28;20525;-86
2020/12/22 14:42:05;;;;;;;3.30;3.00;;;13.10;99.90;;;;;;5023493;28;20463;-86
2020/12/22 14:44:31;;;;;;;4.97;3.50;;;13.10;99.90;;;;;;5024067;28;20546;-84
2020/12/22 14:46:58;;;;;;;4.87;2.63;;;13.10;99.90;;;;;;5024107;28;20502;-84
2020/12/22 14:49:24;;;;;;;4.47;3.00;;;13.00;99.90;;;;;;5035535;22;20543;-80
2020/12/22 14:51:51;;;;;;;18.23;9.37;;;13.00;99.90;;;;;;5021764;28;20479;-80
2020/12/22 14:54:19;;;;;;;3.10;2.80;;;12.90;99.90;;;;;;5021940;28;20494;-79
2020/12/22 14:56:45;;;;;;;2.57;2.40;;;12.90;99.90;;;;;;5019503;28;20447;-80
2020/12/22 14:59:11;;;;;;;4.73;3.13;;;12.90;99.90;;;;;;5019288;28;20459;-81
2020/12/22 15:01:37;;;;;;;11.80;4.30;;;12.70;99.90;;;;;;5018805;28;20473;-79
2020/12/22 15:04:04;;;;;;;5.97;3.57;;;12.60;99.90;;;;;;5018525;28;20450;-78
2020/12/22 15:06:30;;;;;;;4.00;3.50;;;12.60;99.90;;;;;;5016628;28;20597;-79
2020/12/22 15:08:57;;;;;;;7.00;5.20;;;12.50;99.90;;;;;;5017388;28;20503;-78
2020/12/22 15:11:25;;;;;;;5.90;4.33;;;12.50;99.90;;;;;;5016671;28;20454;-79
2020/12/22 15:13:51;;;;;;;5.13;2.63;;;12.40;99.90;;;;;;5016733;28;20447;-80
2020/12/22 15:16:17;;;;;;;4.43;3.20;;;12.30;99.90;;;;;;5016559;28;20447;-80
2020/12/22 15:18:44;;;;;;;4.50;3.53;;;12.20;99.90;;;;;;5020252;28;20471;-79
2020/12/22 15:21:10;;;;;;;3.77;3.57;;;12.20;99.90;;;;;;5019896;28;20451;-87
2020/12/22 15:23:36;;;;;;;6.13;3.50;;;12.20;99.90;;;;;;5018024;28;20466;-86
2020/12/22 15:26:04;;;;;;;6.23;4.23;;;12.10;99.90;;;;;;5018847;28;20486;-86
2020/12/22 15:28:30;;;;;;;4.67;4.20;;;12.20;99.90;;;;;;5018895;28;20950;-86
2020/12/22 15:30:57;;;;;;;3.60;3.37;;;12.10;99.90;;;;;;5018676;28;20486;-87
2020/12/22 15:33:24;;;;;;;5.00;4.10;;;12.00;99.90;;;;;;5031861;28;20439;-86
2020/12/22 15:35:53;;;;;;;4.37;3.97;;;12.00;99.90;;;;;;5021707;28;20456;-86
2020/12/22 15:38:23;;;;;;;3.63;3.33;;;11.90;99.90;;;;;;5037334;28;20474;-85
2020/12/22 15:40:50;;;;;;;4.37;3.97;;;11.90;99.90;;;;;;5038332;28;20443;-86
2020/12/22 15:43:18;;;;;;;3.60;3.30;;;11.80;99.90;;;;;;5038036;28;20439;-86